createdAt,value
2019-04-14T00:00:33.615Z,26.5
2019-04-14T00:01:21.609Z,26.4
2019-04-14T00:02:09.746Z,26.3
2019-04-14T00:03:02.262Z,26.3
2019-04-14T00:03:50.050Z,26.2
2019-04-14T00:04:42.762Z,26.1
2019-04-14T00:05:40.731Z,26.1
2019-04-14T00:06:24.190Z,25.9
2019-04-14T00:07:14.949Z,25.9
2019-04-14T00:08:02.354Z,25.8
2019-04-14T00:08:52.913Z,25.8
2019-04-14T00:09:41.736Z,25.7
2019-04-14T00:10:35.367Z,25.6
2019-04-14T00:11:23.878Z,25.5
2019-04-14T00:12:22.887Z,25.4
2019-04-14T00:13:04.811Z,25.4
2019-04-14T00:13:56.452Z,25.3
2019-04-14T00:14:45.173Z,25.3
2019-04-14T00:16:08.088Z,25.1
2019-04-14T00:16:29.097Z,25
2019-04-14T00:17:19.947Z,25
2019-04-14T00:18:10.206Z,24.9
2019-04-14T00:18:58.336Z,24.9
2019-04-14T00:19:48.482Z,24.8
2019-04-14T00:20:36.832Z,24.3
2019-04-14T00:21:30.157Z,24.1
2019-04-14T00:22:20.241Z,24.4
2019-04-14T00:23:08.970Z,24.7
2019-04-14T00:23:59.390Z,24.9
2019-04-14T00:24:48.905Z,25.3
2019-04-14T00:25:39.782Z,25.6
2019-04-14T00:26:29.767Z,25.9
2019-04-14T00:27:21.875Z,26.3
2019-04-14T00:28:09.974Z,26.7
2019-04-14T00:29:00.662Z,27
2019-04-14T00:29:50.290Z,27.3
2019-04-14T00:30:42.554Z,27.6
2019-04-14T00:31:31.186Z,27.9
2019-04-14T00:32:20.381Z,28.2
2019-04-14T00:33:10.535Z,28.4
2019-04-14T00:34:00.907Z,28.6
2019-04-14T00:34:50.648Z,28.6
2019-04-14T00:35:39.092Z,28.5
2019-04-14T00:36:30.405Z,28.4
2019-04-14T00:37:20.981Z,28.3
2019-04-14T00:38:12.964Z,28.2
2019-04-14T00:38:59.479Z,28.1
2019-04-14T00:39:49.681Z,28
2019-04-14T00:40:45.934Z,27.9
2019-04-14T00:42:30.354Z,27.6
2019-04-14T00:43:22.010Z,27.6
2019-04-14T00:44:10.943Z,27.5
2019-04-14T00:45:00.971Z,27.4
2019-04-14T00:46:18.797Z,27.4
2019-04-14T00:46:47.357Z,27.3
2019-04-14T00:47:29.391Z,27.2
2019-04-14T00:48:39.201Z,27.1
2019-04-14T00:49:11.408Z,27
2019-04-14T00:50:02.107Z,26.9
2019-04-14T00:50:49.528Z,26.9
2019-04-14T00:51:48.500Z,26.8
2019-04-14T00:52:31.850Z,26.8
2019-04-14T00:53:23.025Z,26.6
2019-04-14T00:54:11.630Z,26.6
2019-04-14T00:55:01.461Z,26.5
2019-04-14T00:55:51.580Z,26.4
2019-04-14T00:56:39.700Z,26.4
2019-04-14T00:57:31.617Z,26.3
2019-04-14T00:58:19.715Z,26.3
2019-04-14T00:59:11.399Z,26.1
2019-04-14T00:59:59.999Z,26.1
2019-04-14T01:00:54.367Z,26
2019-04-14T01:01:42.065Z,25.9
2019-04-14T01:02:31.759Z,25.8
2019-04-14T01:03:22.679Z,25.8
2019-04-14T01:04:10.312Z,25.7
2019-04-14T01:05:00.104Z,25.6
2019-04-14T01:05:53.085Z,25.6
2019-04-14T01:06:43.075Z,25.4
2019-04-14T01:07:32.614Z,25.4
2019-04-14T01:08:22.740Z,25.3
2019-04-14T01:09:10.943Z,25.3
2019-04-14T01:10:01.707Z,25.2
2019-04-14T01:10:53.941Z,25.1
2019-04-14T01:11:44.239Z,25
2019-04-14T01:12:34.638Z,24.9
2019-04-14T01:13:30.977Z,24.9
2019-04-14T01:14:13.097Z,24.8
2019-04-14T01:15:04.975Z,24.7
2019-04-14T01:16:40.742Z,24.2
2019-04-14T01:17:02.745Z,24.7
2019-04-14T01:17:50.876Z,24.8
2019-04-14T01:18:42.879Z,24.9
2019-04-14T01:19:31.627Z,25.3
2019-04-14T01:20:23.148Z,25.6
2019-04-14T01:21:13.822Z,25.9
2019-04-14T01:22:03.668Z,26.2
2019-04-14T01:22:53.094Z,26.6
2019-04-14T01:23:45.455Z,26.9
2019-04-14T01:24:34.134Z,27.3
2019-04-14T01:25:23.800Z,27.6
2019-04-14T01:27:01.601Z,28.1
2019-04-14T01:27:52.199Z,28.3
2019-04-14T01:28:41.777Z,28.6
2019-04-14T01:29:32.466Z,28.6
2019-04-14T01:30:24.639Z,28.5
2019-04-14T01:31:14.521Z,28.4
2019-04-14T01:32:02.822Z,28.3
2019-04-14T01:32:54.278Z,28.3
2019-04-14T01:33:44.392Z,28.1
2019-04-14T01:34:33.388Z,28.1
2019-04-14T01:35:24.816Z,27.9
2019-04-14T01:37:05.018Z,27.8
2019-04-14T01:37:53.099Z,27.6
2019-04-14T01:38:43.308Z,27.6
2019-04-14T01:39:33.373Z,27.4
2019-04-14T01:40:24.883Z,27.4
2019-04-14T01:41:15.205Z,27.3
2019-04-14T01:42:04.829Z,27.2
2019-04-14T01:42:55.383Z,27.1
2019-04-14T01:43:45.207Z,27.1
2019-04-14T01:44:33.546Z,27
2019-04-14T01:45:25.201Z,26.9
2019-04-14T01:46:51.754Z,26.8
2019-04-14T01:47:16.450Z,26.7
2019-04-14T01:48:04.343Z,26.7
2019-04-14T01:48:54.473Z,26.6
2019-04-14T01:49:44.363Z,26.6
2019-04-14T01:50:34.940Z,26.4
2019-04-14T01:51:24.481Z,26.4
2019-04-14T01:52:12.928Z,26.3
2019-04-14T01:53:03.720Z,26.2
2019-04-14T01:53:55.227Z,26.2
2019-04-14T01:54:45.182Z,26.1
2019-04-14T01:55:33.036Z,26
2019-04-14T01:56:25.104Z,25.9
2019-04-14T01:57:15.581Z,25.8
2019-04-14T01:58:05.291Z,25.8
2019-04-14T01:58:53.359Z,25.7
2019-04-14T01:59:43.765Z,25.6
2019-04-14T02:00:31.578Z,25.6
2019-04-14T02:01:24.322Z,25.4
2019-04-14T02:02:16.172Z,25.4
2019-04-14T02:03:02.404Z,25.3
2019-04-14T02:03:52.542Z,25.3
2019-04-14T02:04:44.276Z,25.2
2019-04-14T02:05:32.563Z,25.1
2019-04-14T02:06:22.795Z,25.1
2019-04-14T02:07:16.590Z,24.9
2019-04-14T02:08:06.815Z,24.9
2019-04-14T02:08:56.815Z,24.8
2019-04-14T02:09:47.402Z,24.5
2019-04-14T02:10:35.466Z,24.2
2019-04-14T02:11:26.878Z,24.4
2019-04-14T02:12:15.396Z,24.8
2019-04-14T02:13:07.140Z,25
2019-04-14T02:13:57.186Z,25.3
2019-04-14T02:14:45.076Z,25.6
2019-04-14T02:15:35.902Z,25.9
2019-04-14T02:17:20.514Z,26.3
2019-04-14T02:17:44.066Z,27.1
2019-04-14T02:18:33.968Z,27.2
2019-04-14T02:19:26.283Z,27.5
2019-04-14T02:21:04.921Z,28.1
2019-04-14T02:21:56.833Z,28.3
2019-04-14T02:22:44.611Z,28.6
2019-04-14T02:23:36.806Z,28.6
2019-04-14T02:24:26.861Z,28.5
2019-04-14T02:25:14.746Z,28.4
2019-04-14T02:26:09.060Z,28.3
2019-04-14T02:26:57.466Z,28.2
2019-04-14T02:27:45.585Z,28.1
2019-04-14T02:28:35.836Z,28
2019-04-14T02:29:25.404Z,27.9
2019-04-14T02:50:29.798Z,27
2019-04-14T03:19:13.681Z,24.9
2019-04-14T03:33:16.946Z,28.1
2019-04-14T03:56:25.044Z,25.3
2019-04-14T03:56:46.617Z,24.7
2019-04-14T03:57:43.316Z,24.4
2019-04-14T03:58:31.955Z,24.2
2019-04-14T03:59:15.102Z,24.6
2019-04-14T04:00:05.778Z,24.8
2019-04-14T04:00:57.506Z,25.1
2019-04-14T04:01:44.181Z,25.4
2019-04-14T04:02:35.881Z,25.7
2019-04-14T04:03:24.383Z,26
2019-04-14T04:04:16.820Z,26.3
2019-04-14T04:05:06.309Z,26.8
2019-04-14T04:05:59.077Z,27.1
2019-04-14T04:06:48.441Z,27.4
2019-04-14T04:07:37.167Z,27.7
2019-04-14T04:08:27.263Z,27.9
2019-04-14T04:09:17.623Z,28.2
2019-04-14T04:10:09.229Z,28.5
2019-04-14T04:10:57.481Z,28.6
2019-04-14T04:11:47.850Z,28.5
2019-04-14T04:12:38.393Z,28.4
2019-04-14T04:13:30.111Z,28.4
2019-04-14T04:14:16.650Z,28.3
2019-04-14T04:15:10.377Z,28.2
2019-04-14T04:15:56.382Z,28.1
2019-04-14T04:16:48.310Z,28
2019-04-14T04:17:37.242Z,27.9
2019-04-14T04:18:27.140Z,27.8
2019-04-14T04:19:35.877Z,27.7
2019-04-14T04:20:07.206Z,27.6
2019-04-14T04:20:59.284Z,27.5
2019-04-14T04:21:49.262Z,27.4
2019-04-14T04:22:37.577Z,27.3
2019-04-14T04:23:28.967Z,27.3
2019-04-14T04:24:17.522Z,27.1
2019-04-14T04:25:09.336Z,27.1
2019-04-14T04:25:59.441Z,27
2019-04-14T04:26:48.184Z,26.9
2019-04-14T04:27:36.145Z,26.8
2019-04-14T04:28:26.364Z,26.8
2019-04-14T04:29:20.594Z,26.7
2019-04-14T04:30:10.095Z,26.6
2019-04-14T04:30:57.987Z,26.5
2019-04-14T04:31:46.082Z,26.4
2019-04-14T04:32:38.949Z,26.4
2019-04-14T04:33:30.508Z,26.3
2019-04-14T04:34:18.549Z,26.2
2019-04-14T04:35:10.636Z,26.1
2019-04-14T04:35:59.543Z,26.1
2019-04-14T04:36:47.273Z,26
2019-04-14T04:37:39.514Z,25.9
2019-04-14T04:38:31.212Z,25.8
2019-04-14T04:39:18.992Z,25.8
2019-04-14T04:40:09.866Z,25.7
2019-04-14T04:40:57.651Z,25.6
2019-04-14T04:41:51.479Z,25.6
2019-04-14T04:42:39.391Z,25.4
2019-04-14T04:43:28.336Z,25.4
2019-04-14T04:44:20.873Z,25.3
2019-04-14T04:45:10.275Z,25.3
2019-04-14T04:45:58.024Z,25.2
2019-04-14T04:46:50.975Z,25.1
2019-04-14T04:47:38.275Z,25
2019-04-14T04:48:31.188Z,24.9
2019-04-14T04:49:46.746Z,24.9
2019-04-14T04:50:11.385Z,24.8
2019-04-14T04:51:00.608Z,24.4
2019-04-14T04:51:50.819Z,24.3
2019-04-14T04:52:40.678Z,24.5
2019-04-14T04:53:31.413Z,24.9
2019-04-14T04:54:23.491Z,25.1
2019-04-14T04:55:11.192Z,25.4
2019-04-14T04:55:59.982Z,25.8
2019-04-14T04:56:49.314Z,26.1
2019-04-14T04:57:39.483Z,26.4
2019-04-14T04:58:29.055Z,26.8
2019-04-14T04:59:19.847Z,27.1
2019-04-14T05:00:13.972Z,27.4
2019-04-14T05:01:50.124Z,28.1
2019-04-14T05:02:43.872Z,28.3
2019-04-14T05:03:33.723Z,28.6
2019-04-14T05:04:22.457Z,28.6
2019-04-14T05:05:10.805Z,28.5
2019-04-14T05:06:00.801Z,28.4
2019-04-14T05:06:52.530Z,28.3
2019-04-14T05:07:40.492Z,28.3
2019-04-14T05:08:30.992Z,28.1
2019-04-14T05:09:21.492Z,28.1
2019-04-14T05:10:13.077Z,27.9
2019-04-14T05:11:56.666Z,27.8
2019-04-14T05:12:41.191Z,27.6
2019-04-14T05:13:31.062Z,27.6
2019-04-14T05:14:24.037Z,27.4
2019-04-14T05:15:12.337Z,27.4
2019-04-14T05:16:04.673Z,27.3
2019-04-14T05:16:50.659Z,27.2
2019-04-14T05:17:45.160Z,27.1
2019-04-14T05:18:31.846Z,27
2019-04-14T05:19:56.702Z,26.9
2019-04-14T05:20:22.376Z,26.8
2019-04-14T05:21:10.367Z,26.8
2019-04-14T05:21:58.569Z,26.7
2019-04-14T05:22:51.305Z,26.6
2019-04-14T05:23:40.987Z,26.6
2019-04-14T05:24:28.963Z,26.5
2019-04-14T05:25:19.958Z,26.4
2019-04-14T05:26:09.663Z,26.3
2019-04-14T05:27:01.862Z,26.3
2019-04-14T05:27:49.928Z,26.1
2019-04-14T05:28:41.603Z,26.1
2019-04-14T05:29:30.218Z,26
2019-04-14T05:30:20.179Z,25.9
2019-04-14T05:31:12.037Z,25.9
2019-04-14T05:31:58.603Z,25.8
2019-04-14T05:32:47.923Z,25.7
2019-04-14T05:33:40.339Z,25.6
2019-04-14T05:34:30.430Z,25.6
2019-04-14T05:35:21.015Z,25.5
2019-04-14T05:36:09.091Z,25.4
2019-04-14T05:36:56.837Z,25.3
2019-04-14T05:37:49.132Z,25.3
2019-04-14T05:38:49.470Z,25.2
2019-04-14T05:39:32.846Z,25.1
2019-04-14T05:40:21.519Z,25.1
2019-04-14T05:41:11.465Z,24.9
2019-04-14T05:42:43.178Z,24.9
2019-04-14T05:43:06.630Z,24.8
2019-04-14T05:44:20.658Z,24.5
2019-04-14T05:44:45.761Z,24.3
2019-04-14T05:45:35.597Z,24.6
2019-04-14T05:46:25.159Z,24.9
2019-04-14T05:47:15.255Z,25.1
2019-04-14T05:48:07.448Z,25.4
2019-04-14T05:48:57.767Z,25.8
2019-04-14T05:50:13.662Z,26.1
2019-04-14T05:50:36.233Z,26.7
2019-04-14T05:51:33.290Z,26.9
2019-04-14T05:52:16.232Z,27.3
2019-04-14T05:53:06.398Z,27.6
2019-04-14T05:53:55.247Z,27.9
2019-04-14T05:54:45.709Z,28.1
2019-04-14T05:55:37.252Z,28.4
2019-04-14T05:56:25.737Z,28.6
2019-04-14T05:57:15.992Z,28.5
2019-04-14T05:58:05.590Z,28.5
2019-04-14T05:58:56.249Z,28.4
2019-04-14T05:59:46.694Z,28.3
2019-04-14T06:00:38.500Z,28.2
2019-04-14T06:01:27.517Z,28.1
2019-04-14T06:02:15.776Z,27.9
2019-04-14T06:03:06.464Z,27.9
2019-04-14T06:05:22.986Z,27.6
2019-04-14T06:05:58.118Z,27.5
2019-04-14T06:06:47.161Z,27.4
2019-04-14T06:07:37.500Z,27.4
2019-04-14T06:08:27.264Z,27.3
2019-04-14T06:09:18.081Z,27.2
2019-04-14T06:10:07.606Z,27.1
2019-04-14T06:10:57.345Z,27.1
2019-04-14T06:11:48.318Z,26.9
2019-04-14T06:12:37.202Z,26.9
2019-04-14T06:13:28.403Z,26.8
2019-04-14T06:14:17.451Z,26.8
2019-04-14T06:15:08.310Z,26.6
2019-04-14T06:15:58.005Z,26.6
2019-04-14T06:16:48.618Z,26.5
2019-04-14T06:17:38.468Z,26.4
2019-04-14T06:18:27.431Z,26.3
2019-04-14T06:19:18.365Z,26.3
2019-04-14T06:20:08.720Z,26.2
2019-04-14T06:20:58.448Z,26.1
2019-04-14T06:21:48.535Z,26
2019-04-14T06:22:38.331Z,25.9
2019-04-14T06:23:28.642Z,25.9
2019-04-14T06:24:19.488Z,25.8
2019-04-14T06:25:08.665Z,25.7
2019-04-14T06:25:58.714Z,25.6
2019-04-14T06:26:49.242Z,25.6
2019-04-14T06:27:38.932Z,25.5
2019-04-14T06:28:29.017Z,25.4
2019-04-14T06:29:17.927Z,25.3
2019-04-14T06:30:09.130Z,25.3
2019-04-14T06:30:57.882Z,25.2
2019-04-14T06:31:49.222Z,25.1
2019-04-14T06:32:38.985Z,25.1
2019-04-14T06:33:27.155Z,24.9
2019-04-14T06:34:18.875Z,24.9
2019-04-14T06:35:09.757Z,24.8
2019-04-14T06:35:59.543Z,24.8
2019-04-14T06:36:49.837Z,24.7
2019-04-14T06:37:38.092Z,24.6
2019-04-14T06:38:28.781Z,24.6
2019-04-14T06:39:19.597Z,24.5
2019-04-14T06:40:08.875Z,24.4
2019-04-14T06:40:59.912Z,24.3
2019-04-14T06:41:49.482Z,24.3
2019-04-14T06:42:40.064Z,24.2
2019-04-14T06:43:29.572Z,24.1
2019-04-14T06:44:18.861Z,24
2019-04-14T06:45:09.999Z,24
2019-04-14T06:46:00.446Z,23.9
2019-04-14T06:46:51.441Z,23.8
2019-04-14T06:47:40.586Z,23.8
2019-04-14T06:48:30.159Z,23.7
2019-04-14T06:49:20.327Z,23.6
2019-04-14T06:50:10.606Z,23.6
2019-04-14T06:51:01.107Z,23.5
2019-04-14T06:51:50.439Z,23.4
2019-04-14T06:52:41.038Z,23.5
2019-04-14T06:53:31.631Z,23.9
2019-04-14T06:54:20.668Z,24.7
2019-04-14T06:55:11.220Z,24.9
2019-04-14T06:56:03.072Z,25.3
2019-04-14T06:56:51.031Z,25.6
2019-04-14T06:57:40.606Z,25.9
2019-04-14T06:58:31.353Z,26.3
2019-04-14T06:59:21.200Z,26.7
2019-04-14T07:00:11.645Z,26.9
2019-04-14T07:01:00.735Z,26.9
2019-04-14T07:01:52.510Z,26.9
2019-04-14T07:02:41.678Z,26.8
2019-04-14T07:05:07.262Z,26.6
2019-04-14T07:06:00.053Z,26.5
2019-04-14T07:06:47.709Z,26.4
2019-04-14T07:07:36.048Z,26.4
2019-04-14T07:08:30.386Z,26.3
2019-04-14T07:09:17.365Z,26.2
2019-04-14T07:10:08.130Z,26.1
2019-04-14T07:10:57.569Z,26
2019-04-14T07:11:47.670Z,25.9
2019-04-14T07:12:38.315Z,25.9
2019-04-14T07:13:29.496Z,25.8
2019-04-14T07:14:16.863Z,25.7
2019-04-14T07:15:08.731Z,25.6
2019-04-14T07:15:58.795Z,25.6
2019-04-14T07:16:51.975Z,25.5
2019-04-14T07:17:38.952Z,25.4
2019-04-14T07:18:27.619Z,25.4
2019-04-14T07:19:18.527Z,25.3
2019-04-14T07:20:11.279Z,25.2
2019-04-14T07:20:59.026Z,25.2
2019-04-14T07:21:48.751Z,25.1
2019-04-14T07:22:39.080Z,25
2019-04-14T07:23:28.522Z,24.9
2019-04-14T07:24:18.580Z,24.9
2019-04-14T07:25:08.472Z,24.8
2019-04-14T07:25:58.929Z,24.8
2019-04-14T07:26:49.580Z,24.7
2019-04-14T07:27:38.404Z,24.6
2019-04-14T07:28:29.252Z,24.6
2019-04-14T07:29:22.629Z,24.5
2019-04-14T07:30:09.624Z,24.4
2019-04-14T07:30:59.628Z,24.3
2019-04-14T07:31:49.189Z,24.3
2019-04-14T07:32:39.266Z,24.2
2019-04-14T07:33:28.954Z,24.2
2019-04-14T07:34:19.358Z,24.1
2019-04-14T07:35:10.520Z,24.1
2019-04-14T07:36:00.229Z,24
2019-04-14T07:36:49.749Z,23.9
2019-04-14T07:37:39.579Z,23.8
2019-04-14T07:38:30.458Z,23.8
2019-04-14T07:39:20.563Z,23.7
2019-04-14T07:40:09.081Z,23.7
2019-04-14T07:41:00.136Z,23.6
2019-04-14T07:41:49.088Z,23.5
2019-04-14T07:42:40.743Z,23.4
2019-04-14T07:43:29.511Z,23.4
2019-04-14T07:44:23.494Z,23.3
2019-04-14T07:45:09.671Z,23.3
2019-04-14T07:46:00.911Z,23.5
2019-04-14T07:46:51.200Z,23.9
2019-04-14T07:47:41.170Z,24.8
2019-04-14T07:48:31.284Z,25.1
2019-04-14T07:49:20.432Z,25.4
2019-04-14T07:50:23.664Z,25.6
2019-04-14T07:51:01.392Z,26.1
2019-04-14T07:51:50.737Z,26.3
2019-04-14T07:52:40.850Z,26.7
2019-04-14T07:53:30.295Z,26.9
2019-04-14T07:54:20.875Z,26.9
2019-04-14T07:55:11.201Z,26.9
2019-04-14T07:56:01.550Z,26.8
2019-04-14T07:56:50.537Z,26.8
2019-04-14T07:57:41.045Z,26.7
2019-04-14T07:58:31.952Z,26.6
2019-04-14T07:59:20.974Z,26.5
2019-04-14T08:00:10.985Z,26.4
2019-04-14T08:01:01.626Z,26.3
2019-04-14T08:01:51.620Z,26.3
2019-04-14T08:02:40.883Z,26.2
2019-04-14T08:03:31.860Z,26.1
2019-04-14T08:04:21.365Z,26
2019-04-14T08:05:11.424Z,25.9
2019-04-14T08:06:01.671Z,25.8
2019-04-14T08:06:52.665Z,25.8
2019-04-14T08:07:41.519Z,25.7
2019-04-14T08:08:32.118Z,25.6
2019-04-14T08:09:22.487Z,25.6
2019-04-14T08:10:11.800Z,25.5
2019-04-14T08:11:01.270Z,25.4
2019-04-14T08:11:51.994Z,25.3
2019-04-14T08:12:43.224Z,25.3
2019-04-14T08:13:32.304Z,25.2
2019-04-14T08:14:22.339Z,25.1
2019-04-14T08:15:11.891Z,25.1
2019-04-14T08:16:01.472Z,25
2019-04-14T08:16:53.659Z,24.9
2019-04-14T08:17:43.381Z,24.9
2019-04-14T08:18:33.146Z,24.8
2019-04-14T08:19:22.977Z,24.8
2019-04-14T08:20:12.755Z,24.6
2019-04-14T08:21:03.396Z,24.6
2019-04-14T08:21:52.851Z,24.5
2019-04-14T08:22:42.656Z,24.4
2019-04-14T08:23:33.194Z,24.4
2019-04-14T08:24:22.204Z,24.4
2019-04-14T08:25:12.783Z,24.3
2019-04-14T08:26:03.901Z,24.2
2019-04-14T08:26:52.536Z,24.1
2019-04-14T08:27:44.301Z,24.1
2019-04-14T08:28:33.828Z,24
2019-04-14T08:29:23.449Z,23.9
2019-04-14T08:30:13.732Z,23.9
2019-04-14T08:31:04.128Z,23.8
2019-04-14T08:31:53.818Z,23.8
2019-04-14T08:32:43.788Z,23.7
2019-04-14T08:33:34.266Z,23.6
2019-04-14T08:34:24.585Z,23.6
2019-04-14T08:35:13.486Z,23.5
2019-04-14T08:36:04.691Z,23.4
2019-04-14T08:36:53.421Z,23.4
2019-04-14T08:37:43.988Z,23.3
2019-04-14T08:38:34.305Z,23.3
2019-04-14T08:39:24.615Z,23.5
2019-04-14T08:40:14.455Z,24.2
2019-04-14T08:41:03.957Z,24.8
2019-04-14T08:41:53.925Z,25
2019-04-14T08:42:44.597Z,25.3
2019-04-14T08:43:34.130Z,25.7
2019-04-14T08:44:24.454Z,26
2019-04-14T08:45:15.384Z,26.4
2019-04-14T08:46:04.343Z,26.8
2019-04-14T08:46:54.671Z,26.9
2019-04-14T08:47:44.787Z,26.9
2019-04-14T08:48:34.458Z,26.9
2019-04-14T08:49:25.660Z,26.8
2019-04-14T08:50:15.416Z,26.8
2019-04-14T08:51:05.214Z,26.6
2019-04-14T08:51:55.592Z,26.6
2019-04-14T08:52:44.866Z,26.5
2019-04-14T08:53:34.520Z,26.4
2019-04-14T08:54:25.458Z,26.3
2019-04-14T08:55:15.819Z,26.2
2019-04-14T08:56:05.574Z,26.1
2019-04-14T08:56:55.400Z,26.1
2019-04-14T08:57:45.197Z,26
2019-04-14T08:58:34.415Z,25.9
2019-04-14T08:59:25.042Z,25.8
2019-04-14T09:00:15.388Z,25.8
2019-04-14T09:01:05.421Z,25.7
2019-04-14T09:01:55.304Z,25.6
2019-04-14T09:02:44.444Z,25.6
2019-04-14T09:03:36.104Z,25.5
2019-04-14T09:04:25.349Z,25.4
2019-04-14T09:05:15.811Z,25.3
2019-04-14T09:06:05.003Z,25.3
2019-04-14T09:06:56.649Z,25.2
2019-04-14T09:07:46.683Z,25.1
2019-04-14T09:08:36.463Z,25.1
2019-04-14T09:09:26.400Z,25
2019-04-14T09:10:16.753Z,24.9
2019-04-14T09:11:06.898Z,24.9
2019-04-14T09:11:56.736Z,24.8
2019-04-14T09:12:46.791Z,24.8
2019-04-14T09:13:36.655Z,24.7
2019-04-14T09:14:27.298Z,24.6
2019-04-14T09:15:16.881Z,24.6
2019-04-14T09:16:06.360Z,24.5
2019-04-14T09:16:57.385Z,24.4
2019-04-14T09:17:46.948Z,24.3
2019-04-14T09:18:37.051Z,24.3
2019-04-14T09:19:27.400Z,24.2
2019-04-14T09:20:15.893Z,24.1
2019-04-14T09:21:05.860Z,24.1
2019-04-14T09:21:58.017Z,24
2019-04-14T09:22:47.581Z,23.9
2019-04-14T09:23:37.618Z,23.9
2019-04-14T09:24:26.682Z,23.8
2019-04-14T09:25:17.705Z,23.8
2019-04-14T09:26:07.792Z,23.7
2019-04-14T09:26:57.802Z,23.7
2019-04-14T09:27:47.632Z,23.6
2019-04-14T09:28:38.525Z,23.5
2019-04-14T09:29:27.574Z,23.4
2019-04-14T09:30:18.348Z,23.4
2019-04-14T09:31:07.648Z,23.3
2019-04-14T09:31:59.012Z,23.3
2019-04-14T09:32:48.564Z,23.4
2019-04-14T09:33:38.935Z,24.1
2019-04-14T09:34:28.637Z,24.7
2019-04-14T09:35:17.966Z,24.9
2019-04-14T09:36:07.963Z,25.2
2019-04-14T09:36:58.329Z,25.5
2019-04-14T09:37:48.729Z,25.8
2019-04-14T09:38:38.955Z,26.2
2019-04-14T09:39:28.601Z,26.6
2019-04-14T09:40:17.936Z,26.9
2019-04-14T09:41:08.321Z,26.9
2019-04-14T09:41:59.201Z,26.8
2019-04-14T09:42:48.454Z,26.8
2019-04-14T09:43:38.747Z,26.7
2019-04-14T09:44:28.851Z,26.6
2019-04-14T09:45:18.902Z,26.6
2019-04-14T09:46:09.515Z,26.4
2019-04-14T09:46:58.619Z,26.4
2019-04-14T09:47:49.459Z,26.3
2019-04-14T09:48:38.947Z,26.2
2019-04-14T09:49:28.961Z,26.1
2019-04-14T09:50:18.448Z,26.1
2019-04-14T09:51:13.784Z,25.9
2019-04-14T09:51:59.651Z,25.9
2019-04-14T09:52:49.516Z,25.8
2019-04-14T09:53:39.491Z,25.8
2019-04-14T09:54:30.107Z,25.7
2019-04-14T09:55:23.238Z,25.6
2019-04-14T09:56:10.363Z,25.5
2019-04-14T09:57:00.088Z,25.4
2019-04-14T09:57:50.116Z,25.4
2019-04-14T09:58:40.135Z,25.3
2019-04-14T09:59:30.495Z,25.3
2019-04-14T10:00:19.201Z,25.2
2019-04-14T10:01:13.185Z,25.1
2019-04-14T10:02:00.386Z,25.1
2019-04-14T10:02:49.971Z,25
2019-04-14T10:03:41.313Z,24.9
2019-04-14T10:06:07.792Z,24.8
2019-04-14T10:06:58.278Z,24.7
2019-04-14T10:07:48.143Z,24.6
2019-04-14T10:08:36.786Z,24.6
2019-04-14T10:09:28.290Z,24.5
2019-04-14T10:10:18.866Z,24.4
2019-04-14T10:11:07.475Z,24.4
2019-04-14T10:12:05.146Z,24.3
2019-04-14T10:12:48.469Z,24.3
2019-04-14T10:13:37.882Z,24.2
2019-04-14T10:14:27.130Z,24.1
2019-04-14T10:15:17.762Z,24.1
2019-04-14T10:16:07.560Z,24
2019-04-14T10:17:01.088Z,23.9
2019-04-14T10:17:47.142Z,23.9
2019-04-14T10:18:37.720Z,23.8
2019-04-14T10:19:26.660Z,23.8
2019-04-14T10:20:18.630Z,23.7
2019-04-14T10:21:22.486Z,23.6
2019-04-14T10:21:58.240Z,23.5
2019-04-14T10:22:47.751Z,23.5
2019-04-14T10:23:41.889Z,23.4
2019-04-14T10:24:28.487Z,23.4
2019-04-14T10:25:18.491Z,23.3
2019-04-14T10:26:08.849Z,23.2
2019-04-14T10:26:57.743Z,23.4
2019-04-14T10:27:48.706Z,24.1
2019-04-14T10:28:38.959Z,24.6
2019-04-14T10:29:28.236Z,24.9
2019-04-14T10:30:18.880Z,25.1
2019-04-14T10:31:09.169Z,25.4
2019-04-14T10:31:59.485Z,25.7
2019-04-14T10:32:48.461Z,26.1
2019-04-14T10:33:39.106Z,26.4
2019-04-14T10:34:28.646Z,26.8
2019-04-14T10:35:19.252Z,26.9
2019-04-14T10:36:09.379Z,26.9
2019-04-14T10:36:58.849Z,26.8
2019-04-14T10:37:48.771Z,26.8
2019-04-14T10:38:39.696Z,26.7
2019-04-14T10:39:27.351Z,26.6
2019-04-14T10:40:18.831Z,26.5
2019-04-14T10:41:10.258Z,26.4
2019-04-14T10:41:59.475Z,26.3
2019-04-14T10:42:50.572Z,26.3
2019-04-14T10:43:40.381Z,26.2
2019-04-14T10:44:29.359Z,26.1
2019-04-14T10:45:22.997Z,26
2019-04-14T10:46:09.760Z,25.9
2019-04-14T10:47:00.075Z,25.9
2019-04-14T10:47:49.876Z,25.8
2019-04-14T10:48:40.009Z,25.7
2019-04-14T10:49:29.751Z,25.6
2019-04-14T10:50:33.655Z,25.6
2019-04-14T10:51:11.202Z,25.5
2019-04-14T10:52:01.003Z,25.4
2019-04-14T10:52:50.219Z,25.4
2019-04-14T10:53:41.171Z,25.3
2019-04-14T10:54:31.351Z,25.3
2019-04-14T10:55:21.009Z,25.2
2019-04-14T10:56:11.567Z,25.1
2019-04-14T10:57:04.614Z,25.1
2019-04-14T10:57:51.208Z,24.9
2019-04-14T10:58:41.263Z,24.9
2019-04-14T10:59:31.548Z,24.9
2019-04-14T11:00:21.096Z,24.8
2019-04-14T11:01:11.166Z,24.8
2019-04-14T11:02:01.299Z,24.7
2019-04-14T11:02:50.530Z,24.6
2019-04-14T11:03:40.617Z,24.6
2019-04-14T11:04:30.573Z,24.4
2019-04-14T11:05:21.762Z,24.4
2019-04-14T11:06:10.424Z,24.3
2019-04-14T11:07:01.334Z,24.3
2019-04-14T11:07:51.169Z,24.2
2019-04-14T11:08:41.149Z,24.2
2019-04-14T11:09:30.922Z,24.1
2019-04-14T11:10:20.746Z,24
2019-04-14T11:11:12.441Z,23.9
2019-04-14T11:12:00.084Z,23.9
2019-04-14T11:12:51.569Z,23.8
2019-04-14T11:13:41.792Z,23.8
2019-04-14T11:14:31.290Z,23.8
2019-04-14T11:15:23.294Z,23.6
2019-04-14T11:16:12.493Z,23.6
2019-04-14T11:17:02.211Z,23.6
2019-04-14T11:17:52.596Z,23.4
2019-04-14T11:18:41.913Z,23.4
2019-04-14T11:19:31.954Z,23.3
2019-04-14T11:20:22.203Z,23.3
2019-04-14T11:21:13.426Z,23.3
2019-04-14T11:22:02.863Z,23.8
2019-04-14T11:23:06.536Z,24.5
2019-04-14T11:23:42.436Z,24.9
2019-04-14T11:24:32.931Z,25.1
2019-04-14T11:25:23.103Z,25.3
2019-04-14T11:26:12.717Z,25.6
2019-04-14T11:27:03.838Z,25.9
2019-04-14T11:27:54.143Z,26.4
2019-04-14T11:28:43.133Z,26.7
2019-04-14T11:29:34.268Z,26.9
2019-04-14T11:30:23.749Z,26.9
2019-04-14T11:31:13.278Z,26.8
2019-04-14T11:32:03.665Z,26.8
2019-04-14T11:32:53.186Z,26.7
2019-04-14T11:33:42.710Z,26.6
2019-04-14T11:34:33.820Z,26.5
2019-04-14T11:35:25.531Z,26.4
2019-04-14T11:36:14.025Z,26.4
2019-04-14T11:37:04.103Z,26.3
2019-04-14T11:37:53.904Z,26.2
2019-04-14T11:38:44.250Z,26.1
2019-04-14T11:39:34.313Z,26
2019-04-14T11:40:23.650Z,25.9
2019-04-14T11:41:14.673Z,25.9
2019-04-14T11:42:04.777Z,25.8
2019-04-14T11:43:01.979Z,25.8
2019-04-14T11:43:44.646Z,25.7
2019-04-14T11:44:34.662Z,25.6
2019-04-14T11:45:25.214Z,25.6
2019-04-14T11:46:15.427Z,25.4
2019-04-14T11:47:04.329Z,25.4
2019-04-14T11:47:55.124Z,25.3
2019-04-14T11:48:44.547Z,25.3
2019-04-14T11:49:34.677Z,25.2
2019-04-14T11:50:24.544Z,25.1
2019-04-14T11:51:14.267Z,25.1
2019-04-14T11:52:04.936Z,25
2019-04-14T11:52:54.620Z,24.9
2019-04-14T11:53:46.029Z,24.9
2019-04-14T11:54:35.824Z,24.8
2019-04-14T11:55:24.032Z,24.8
2019-04-14T11:56:15.600Z,24.7
2019-04-14T11:57:05.216Z,24.6
2019-04-14T11:57:55.196Z,24.6
2019-04-14T11:58:45.916Z,24.5
2019-04-14T11:59:34.851Z,24.4
2019-04-14T12:00:26.156Z,24.4
2019-04-14T12:01:15.204Z,24.3
2019-04-14T12:02:06.273Z,24.3
2019-04-14T12:02:55.951Z,24.2
2019-04-14T12:03:46.016Z,24.1
2019-04-14T12:06:36.857Z,23.9
2019-04-14T12:07:13.460Z,23.8
2019-04-14T12:08:02.676Z,23.8
2019-04-14T12:08:36.806Z,23.8
2019-04-14T12:09:27.733Z,23.7
2019-04-14T12:10:32.353Z,23.6
2019-04-14T12:11:08.333Z,23.6
2019-04-14T12:11:58.438Z,23.5
2019-04-14T12:12:47.529Z,23.4
2019-04-14T12:13:37.038Z,23.4
2019-04-14T12:14:43.822Z,23.4
2019-04-14T12:15:26.000Z,23.3
2019-04-14T12:16:08.050Z,23.4
2019-04-14T12:16:58.685Z,23.8
2019-04-14T12:17:48.248Z,24.6
2019-04-14T12:19:08.332Z,24.8
2019-04-14T12:19:43.653Z,25.2
2019-04-14T12:20:17.932Z,25.4
2019-04-14T12:21:08.970Z,25.6
2019-04-14T12:22:12.543Z,26
2019-04-14T12:22:48.203Z,26.5
2019-04-14T12:23:38.570Z,26.8
2019-04-14T12:24:29.100Z,26.9
2019-04-14T12:25:19.795Z,26.9
2019-04-14T12:26:29.039Z,26.9
2019-04-14T12:26:59.181Z,26.8
2019-04-14T12:27:58.600Z,26.7
2019-04-14T12:28:49.839Z,26.6
2019-04-14T12:29:54.945Z,26.5
2019-04-14T12:30:31.497Z,26.4
2019-04-14T12:31:21.743Z,26.4
2019-04-14T12:32:20.244Z,26.3
2019-04-14T12:32:49.419Z,26.2
2019-04-14T12:33:54.934Z,26.1
2019-04-14T12:34:43.554Z,26
2019-04-14T12:35:34.701Z,25.9
2019-04-14T12:36:10.507Z,25.9
2019-04-14T12:37:00.539Z,25.8
2019-04-14T12:37:49.774Z,25.8
2019-04-14T12:38:39.699Z,25.7
2019-04-14T12:39:29.459Z,25.6
2019-04-14T12:40:18.179Z,25.6
2019-04-14T12:41:48.676Z,25.5
2019-04-14T12:42:00.676Z,25.4
2019-04-14T12:42:49.419Z,25.4
2019-04-14T12:43:39.979Z,25.3
2019-04-14T12:44:29.831Z,25.3